createdAt,value
2022-12-20T00:04:05.880Z,5.97
2022-12-20T00:09:09.446Z,5.65
2022-12-20T00:14:10.940Z,5.13
2022-12-20T00:19:12.349Z,5.78
2022-12-20T00:24:13.780Z,5.40
2022-12-20T00:29:15.220Z,5.63
2022-12-20T00:34:16.633Z,5.82
2022-12-20T00:39:18.049Z,6.03
2022-12-20T00:44:19.471Z,5.38
2022-12-20T00:49:20.870Z,5.65
2022-12-20T00:54:22.323Z,6.03
2022-12-20T00:59:23.788Z,5.47
2022-12-20T01:04:25.178Z,5.95
2022-12-20T01:09:26.539Z,5.55
2022-12-20T01:14:27.911Z,5.95
2022-12-20T01:19:29.337Z,5.22
2022-12-20T01:24:31.090Z,5.47
2022-12-20T01:29:32.461Z,5.85
2022-12-20T01:34:33.841Z,5.70
2022-12-20T01:39:35.583Z,5.30
2022-12-20T01:44:42.928Z,5.20
2022-12-20T01:49:47.933Z,5.30
2022-12-20T01:54:58.121Z,5.25
2022-12-20T01:59:59.624Z,5.45
2022-12-20T02:05:01.119Z,5.00
2022-12-20T02:10:03.449Z,4.93
2022-12-20T02:15:07.692Z,5.28
2022-12-20T02:20:10.561Z,5.30
2022-12-20T02:25:27.073Z,5.35
2022-12-20T02:30:34.105Z,4.72
2022-12-20T02:35:36.771Z,4.35
2022-12-20T02:40:40.782Z,4.85
2022-12-20T02:45:42.269Z,5.00
2022-12-20T02:50:46.144Z,4.88
2022-12-20T02:55:56.411Z,4.88
2022-12-20T03:00:59.637Z,5.13
2022-12-20T03:06:01.127Z,4.38
2022-12-20T03:11:02.506Z,4.50
2022-12-20T03:16:04.376Z,4.25
2022-12-20T03:21:05.949Z,4.20
2022-12-20T03:26:07.308Z,4.40
2022-12-20T03:31:09.175Z,4.30
2022-12-20T03:36:10.609Z,4.47
2022-12-20T03:41:12.038Z,4.68
2022-12-20T03:46:13.455Z,4.75
2022-12-20T03:51:14.861Z,4.93
2022-12-20T03:56:16.263Z,5.55
2022-12-20T04:01:25.202Z,4.65
2022-12-20T04:06:26.718Z,4.87
2022-12-20T04:11:28.217Z,4.50
2022-12-20T04:16:30.292Z,4.53
2022-12-20T04:21:33.685Z,4.78
2022-12-20T04:26:35.194Z,3.95
2022-12-20T04:31:36.808Z,4.30
2022-12-20T04:36:38.253Z,4.22
2022-12-20T04:41:39.680Z,4.10
2022-12-20T04:46:41.078Z,4.10
2022-12-20T04:51:42.537Z,4.50
2022-12-20T04:56:43.945Z,4.30
2022-12-20T05:01:45.437Z,4.40
2022-12-20T05:06:46.945Z,4.50
2022-12-20T05:11:48.384Z,5.07
2022-12-20T05:16:49.770Z,5.03
2022-12-20T05:22:09.656Z,4.78
2022-12-20T05:27:11.022Z,4.75
2022-12-20T05:32:12.422Z,4.75
2022-12-20T05:37:14.501Z,4.93
2022-12-20T05:42:15.990Z,5.60
2022-12-20T05:47:17.377Z,5.30
2022-12-20T05:52:18.795Z,5.65
2022-12-20T05:57:20.184Z,5.45
2022-12-20T06:02:24.575Z,5.07
2022-12-20T06:07:30.068Z,5.40
2022-12-20T06:12:31.440Z,5.50
2022-12-20T06:17:32.816Z,6.43
2022-12-20T06:22:35.092Z,5.97
2022-12-20T06:27:36.827Z,6.00
2022-12-20T06:32:38.680Z,5.90
2022-12-20T06:37:40.620Z,5.80
2022-12-20T06:42:42.378Z,5.28
2022-12-20T06:47:43.788Z,6.10
2022-12-20T06:52:47.369Z,5.18
2022-12-20T06:57:48.845Z,5.60
2022-12-20T07:02:50.270Z,4.80
2022-12-20T07:07:51.760Z,5.00
2022-12-20T07:12:53.417Z,5.60
2022-12-20T07:17:54.852Z,4.95
2022-12-20T07:22:56.233Z,4.72
2022-12-20T07:27:57.762Z,5.00
2022-12-20T07:32:59.169Z,4.80
2022-12-20T07:38:00.652Z,4.25
2022-12-20T07:43:04.176Z,4.93
2022-12-20T07:48:12.354Z,4.50
2022-12-20T07:53:17.943Z,4.43
2022-12-20T07:58:19.965Z,4.30
2022-12-20T08:03:27.046Z,4.30
2022-12-20T08:08:28.575Z,3.90
2022-12-20T08:13:32.734Z,4.60
2022-12-20T08:18:34.134Z,4.25
2022-12-20T08:23:35.595Z,4.22
2022-12-20T08:28:37.632Z,3.65
2022-12-20T08:33:40.330Z,3.92
2022-12-20T08:38:41.927Z,3.92
2022-12-20T08:43:43.644Z,5.97
2022-12-20T08:48:45.135Z,3.85
2022-12-20T08:53:46.549Z,3.55
2022-12-20T08:58:48.209Z,3.83
2022-12-20T09:03:50.290Z,4.00
2022-12-20T09:08:52.146Z,4.43
2022-12-20T09:13:57.481Z,4.68
2022-12-20T09:19:05.443Z,4.72
2022-12-20T09:24:08.812Z,4.00
2022-12-20T09:29:10.302Z,4.20
2022-12-20T09:34:14.433Z,4.05
2022-12-20T09:39:15.834Z,3.65
2022-12-20T09:44:31.655Z,3.78
2022-12-20T09:49:36.250Z,4.53
2022-12-20T09:54:53.188Z,3.78
2022-12-20T09:59:56.977Z,3.58
2022-12-20T10:04:58.561Z,3.90
2022-12-20T10:10:18.783Z,3.60
2022-12-20T10:15:20.364Z,4.38
2022-12-20T10:20:24.807Z,3.88
2022-12-20T10:25:33.138Z,4.40
2022-12-20T10:30:35.575Z,4.35
2022-12-20T10:35:40.810Z,4.47
2022-12-20T10:46:07.992Z,4.40
2022-12-20T10:51:15.068Z,3.90
2022-12-20T10:56:23.582Z,5.63
2022-12-20T11:01:35.958Z,4.03
2022-12-20T11:06:37.504Z,4.53
2022-12-20T11:11:56.859Z,4.32
2022-12-20T11:17:00.038Z,5.03
2022-12-20T11:22:16.600Z,5.15
2022-12-20T11:27:30.248Z,4.95
2022-12-20T11:32:49.102Z,5.30
2022-12-20T11:38:10.181Z,5.10
2022-12-20T11:44:23.407Z,5.70
2022-12-20T11:49:33.724Z,5.85
2022-12-20T11:54:46.363Z,5.40
2022-12-20T11:59:51.126Z,6.07
2022-12-20T12:05:05.243Z,5.70
2022-12-20T12:10:27.345Z,6.60
2022-12-20T12:15:32.734Z,6.20
2022-12-20T12:20:49.669Z,6.45
2022-12-20T12:25:51.481Z,6.35
2022-12-20T12:30:58.929Z,6.80
2022-12-20T12:36:06.872Z,6.57
2022-12-20T12:41:26.671Z,6.78
2022-12-20T12:46:30.192Z,6.45
2022-12-20T12:51:36.257Z,7.55
2022-12-20T12:56:44.399Z,6.65
2022-12-20T13:01:48.007Z,7.35
2022-12-20T13:06:57.141Z,7.18
2022-12-20T13:12:02.393Z,8.20
2022-12-20T13:17:12.756Z,7.82
2022-12-20T13:22:22.723Z,7.88
2022-12-20T13:27:32.478Z,7.68
2022-12-20T13:32:54.725Z,8.10
2022-12-20T13:38:06.649Z,8.65
2022-12-20T13:43:20.369Z,8.15
2022-12-20T13:48:25.412Z,9.15
2022-12-20T13:53:28.005Z,9.20
2022-12-20T13:58:34.347Z,9.65
2022-12-20T14:03:41.054Z,9.20
2022-12-20T14:08:49.101Z,9.95
2022-12-20T14:14:02.146Z,9.65
2022-12-20T14:19:04.753Z,10.77
2022-12-20T14:24:09.678Z,10.40
2022-12-20T14:29:25.099Z,20.50
2022-12-20T14:34:30.111Z,50.65
2022-12-20T14:39:34.293Z,42.72
2022-12-20T14:44:37.379Z,11.93
2022-12-20T14:49:41.474Z,12.00
2022-12-20T14:55:11.132Z,12.18
2022-12-20T15:00:18.655Z,12.27
2022-12-20T15:05:31.980Z,12.80
2022-12-20T15:10:33.569Z,12.32
2022-12-20T15:15:35.349Z,12.55
2022-12-20T15:20:40.863Z,12.43
2022-12-20T15:25:44.791Z,12.45
2022-12-20T15:30:48.430Z,13.45
2022-12-20T15:35:49.998Z,13.13
2022-12-20T15:40:56.149Z,12.82
2022-12-20T15:45:57.625Z,12.75
2022-12-20T15:50:59.285Z,13.57
2022-12-20T15:56:00.755Z,13.63
2022-12-20T16:01:03.534Z,13.25
2022-12-20T16:06:05.020Z,13.18
2022-12-20T16:11:07.597Z,12.13
2022-12-20T16:16:14.013Z,12.02
2022-12-20T16:21:17.377Z,12.73
2022-12-20T16:26:20.242Z,12.50
2022-12-20T16:31:24.788Z,14.05
2022-12-20T16:36:26.351Z,13.85
2022-12-20T16:41:29.038Z,15.13
2022-12-20T16:46:31.452Z,14.93
2022-12-20T16:51:37.764Z,13.98
2022-12-20T16:56:39.192Z,15.48
2022-12-20T17:01:42.351Z,15.20
2022-12-20T17:06:44.537Z,15.18
2022-12-20T17:11:46.317Z,16.00
2022-12-20T17:16:47.893Z,17.17
2022-12-20T17:27:10.585Z,17.20
2022-12-20T17:32:27.525Z,16.00
2022-12-20T17:37:29.502Z,18.48
2022-12-20T17:42:31.859Z,17.20
2022-12-20T17:47:33.426Z,18.20
2022-12-20T17:52:34.956Z,17.20
2022-12-20T17:57:36.594Z,18.63
2022-12-20T18:02:38.993Z,17.63
2022-12-20T18:07:40.527Z,17.63
2022-12-20T18:12:41.972Z,17.25
2022-12-20T18:17:44.503Z,17.38
2022-12-20T18:22:46.427Z,17.88
2022-12-20T18:27:47.993Z,17.90
2022-12-20T18:32:49.438Z,17.50
2022-12-20T18:37:50.898Z,19.10
2022-12-20T18:42:53.087Z,18.35
2022-12-20T18:47:55.668Z,20.20
2022-12-20T18:53:01.347Z,20.52
2022-12-20T18:58:03.320Z,23.38
2022-12-20T19:03:04.879Z,20.92
2022-12-20T19:08:06.594Z,19.88
2022-12-20T19:13:08.056Z,20.90
2022-12-20T19:18:09.489Z,18.52
2022-12-20T19:23:13.607Z,18.65
2022-12-20T19:28:15.140Z,18.27
2022-12-20T19:33:16.579Z,19.90
2022-12-20T19:38:18.276Z,19.25
2022-12-20T19:43:20.206Z,17.98
2022-12-20T19:48:21.801Z,20.73
2022-12-20T19:53:23.610Z,18.20
2022-12-20T19:58:25.897Z,17.25
2022-12-20T20:03:27.765Z,18.42
2022-12-20T20:08:29.299Z,17.80
2022-12-20T20:13:31.241Z,18.92
2022-12-20T20:18:34.495Z,17.75
2022-12-20T20:23:36.843Z,17.08
2022-12-20T20:28:45.074Z,17.45
2022-12-20T20:33:47.148Z,17.48
2022-12-20T20:38:49.757Z,16.85
2022-12-20T20:43:51.338Z,17.48
2022-12-20T20:48:52.855Z,18.35
2022-12-20T20:53:54.359Z,16.75
2022-12-20T20:59:02.897Z,17.02
2022-12-20T21:04:07.622Z,17.75
2022-12-20T21:09:11.128Z,15.95
2022-12-20T21:14:12.858Z,16.85
2022-12-20T21:19:14.765Z,18.45
2022-12-20T21:24:16.352Z,18.38
2022-12-20T21:29:17.897Z,17.77
2022-12-20T21:34:19.481Z,17.42
2022-12-20T21:39:20.992Z,16.42
2022-12-20T21:44:22.557Z,16.55
2022-12-20T21:49:24.061Z,16.60
2022-12-20T21:54:25.701Z,16.27
2022-12-20T21:59:28.847Z,18.15
2022-12-20T22:04:31.695Z,17.10
2022-12-20T22:09:33.233Z,15.23
2022-12-20T22:14:34.731Z,14.82
2022-12-20T22:19:37.164Z,14.25
2022-12-20T22:24:39.470Z,14.07
2022-12-20T22:29:41.282Z,14.18
2022-12-20T22:34:42.762Z,14.90
2022-12-20T22:39:44.248Z,14.18
2022-12-20T22:44:45.885Z,12.63
2022-12-20T22:49:47.492Z,13.18
2022-12-20T22:54:48.955Z,13.32
2022-12-20T22:59:50.633Z,12.38
2022-12-20T23:04:52.630Z,13.05
2022-12-20T23:09:54.096Z,13.25
2022-12-20T23:15:13.964Z,12.55
2022-12-20T23:20:34.118Z,11.57
2022-12-20T23:25:35.830Z,11.55
2022-12-20T23:30:37.337Z,11.38
2022-12-20T23:35:39.843Z,10.65
2022-12-20T23:40:41.372Z,10.70
2022-12-20T23:45:42.814Z,11.50
2022-12-20T23:50:44.269Z,10.93
2022-12-20T23:55:55.791Z,10.15
